KIXD

New Century Aircenter Airport

Olathe, Kansas, USA
METAR KIXD 211553Z 11014G23KT 10SM CLR M06/M08 A3014 RMK AO2 SLP220 T10561078
Observed Flight Rules
Jan-21 @ 15:53 UTC (39 minutes ago) Visual Flight Rules
Wind Visibility Clouds
110° at 14 knots
 Gusting to 23 knots
10 miles
  • Clear skies
Temperatures Readings
Current -6°C / 21°F
Dewpoint -8°C / 18°F
Humidity 86%
Altimeter 30.14" Hg
Pressure 1022 hPa
Elevation 342
METAR KIXD 211553Z 11014G23KT 10SM CLR M06/M08 A3014 RMK AO2 SLP220 T10561078
Observed Flight Rules
Jan-21 @ 15:53 UTC
(39 minutes ago)
VFR
Wind Visibility
110° at 14 knots
 Gusting to 23 knots
10 miles
Clouds
  • Clear skies
Temperature Dewpoint
-6°C / 21°F -8°C / 18°F
Humidity Altimeter Pressure
86% 30.14" Hg 1022 hPa